METAR Data
IDs: Format: Raw Decoded Include TAF

Data at: 0859 UTC 23 Jan 2019

METAR for:KEDC (Austin/Executive Arp, TX, US)
Text:KEDC 230855Z AUTO 34014G18KT 10SM FEW041 SCT055 OVC090 04/M04 A3015 RMK AO2
Temperature: 4.0°C ( 39°F)
Dewpoint: -4.0°C ( 25°F) [RH = 56%]
Pressure (altimeter):30.15 inches Hg (1021.1 mb)
Winds:from the NNW (340 degrees) at 16 MPH (14 knots; 7.2 m/s) gusting to 21 MPH (18 knots; 9.3 m/s)
Visibility:10 or more sm (16+ km)
Ceiling:9000 feet AGL
Clouds: few clouds at 4100 feet AGL, scattered clouds at 5500 feet AGL, overcast cloud deck at 9000 feet AGL
QC Flag:automated observation with no human augmentation